sensor_id;sensor_type;location;lat;lon;timestamp;pressure;altitude;pressure_sealevel;temperature
15709;BMP180;7954;51.914;8.420;2022-07-29T00:00:16;100392.28;;;26.73
15709;BMP180;7954;51.914;8.420;2022-07-29T00:03:05;100381.28;;;26.67
15709;BMP180;7954;51.914;8.420;2022-07-29T00:06:18;100382.19;;;26.60
15709;BMP180;7954;51.914;8.420;2022-07-29T00:09:07;100373.03;;;26.55
15709;BMP180;7954;51.914;8.420;2022-07-29T00:11:59;100363.28;;;26.52
15709;BMP180;7954;51.914;8.420;2022-07-29T00:14:47;100367.22;;;26.49
15709;BMP180;7954;51.914;8.420;2022-07-29T00:17:35;100366.28;;;26.48
15709;BMP180;7954;51.914;8.420;2022-07-29T00:20:23;100366.88;;;26.46
15709;BMP180;7954;51.914;8.420;2022-07-29T00:23:13;100356.53;;;26.46
15709;BMP180;7954;51.914;8.420;2022-07-29T00:26:01;100350.44;;;26.45
15709;BMP180;7954;51.914;8.420;2022-07-29T00:28:50;100353.78;;;26.44
15709;BMP180;7954;51.914;8.420;2022-07-29T00:31:58;100354.09;;;26.47
15709;BMP180;7954;51.914;8.420;2022-07-29T00:34:47;100363.38;;;26.45
15709;BMP180;7954;51.914;8.420;2022-07-29T00:37:53;100360.81;;;26.45
15709;BMP180;7954;51.914;8.420;2022-07-29T00:40:43;100360.81;;;26.45
15709;BMP180;7954;51.914;8.420;2022-07-29T00:43:32;100350.88;;;26.41
15709;BMP180;7954;51.914;8.420;2022-07-29T00:46:21;100355.91;;;26.40
15709;BMP180;7954;51.914;8.420;2022-07-29T00:49:09;100347.06;;;26.38
15709;BMP180;7954;51.914;8.420;2022-07-29T00:51:57;100344.88;;;26.34
15709;BMP180;7954;51.914;8.420;2022-07-29T00:54:46;100361.91;;;26.32
15709;BMP180;7954;51.914;8.420;2022-07-29T00:57:38;100359.19;;;26.30
15709;BMP180;7954;51.914;8.420;2022-07-29T01:00:28;100351.25;;;26.29
15709;BMP180;7954;51.914;8.420;2022-07-29T01:03:16;100342.41;;;26.27
15709;BMP180;7954;51.914;8.420;2022-07-29T01:06:04;100335.09;;;26.23
15709;BMP180;7954;51.914;8.420;2022-07-29T01:08:53;100339.78;;;26.18
15709;BMP180;7954;51.914;8.420;2022-07-29T01:11:42;100330.63;;;26.13
15709;BMP180;7954;51.914;8.420;2022-07-29T01:14:32;100325.28;;;26.12
15709;BMP180;7954;51.914;8.420;2022-07-29T01:17:24;100328.63;;;26.11
15709;BMP180;7954;51.914;8.420;2022-07-29T01:20:18;100320.06;;;26.03
15709;BMP180;7954;51.914;8.420;2022-07-29T01:23:31;100320.66;;;26.01
15709;BMP180;7954;51.914;8.420;2022-07-29T01:26:41;100310.31;;;26.01
15709;BMP180;7954;51.914;8.420;2022-07-29T01:29:33;100318.22;;;25.94
15709;BMP180;7954;51.914;8.420;2022-07-29T01:32:29;100311.50;;;25.88
15709;BMP180;7954;51.914;8.420;2022-07-29T01:35:22;100302.94;;;25.89
15709;BMP180;7954;51.914;8.420;2022-07-29T01:38:14;100305.22;;;25.86
15709;BMP180;7954;51.914;8.420;2022-07-29T01:41:06;100301.28;;;25.89
15709;BMP180;7954;51.914;8.420;2022-07-29T01:43:59;100291.69;;;25.88
15709;BMP180;7954;51.914;8.420;2022-07-29T01:46:54;100288.00;;;25.86
15709;BMP180;7954;51.914;8.420;2022-07-29T01:49:47;100291.19;;;25.84
15709;BMP180;7954;51.914;8.420;2022-07-29T01:52:39;100288.31;;;25.81
15709;BMP180;7954;51.914;8.420;2022-07-29T01:55:32;100286.31;;;25.78
15709;BMP180;7954;51.914;8.420;2022-07-29T01:58:22;100298.16;;;25.76
15709;BMP180;7954;51.914;8.420;2022-07-29T02:01:12;100291.50;;;25.78
15709;BMP180;7954;51.914;8.420;2022-07-29T02:04:03;100285.88;;;25.82
15709;BMP180;7954;51.914;8.420;2022-07-29T02:06:54;100269.28;;;25.80
15709;BMP180;7954;51.914;8.420;2022-07-29T02:09:44;100269.44;;;25.82
15709;BMP180;7954;51.914;8.420;2022-07-29T02:12:35;100277.91;;;25.72
15709;BMP180;7954;51.914;8.420;2022-07-29T02:15:24;100276.63;;;25.69
15709;BMP180;7954;51.914;8.420;2022-07-29T02:18:16;100276.47;;;25.67
15709;BMP180;7954;51.914;8.420;2022-07-29T02:21:07;100272.06;;;25.66
15709;BMP180;7954;51.914;8.420;2022-07-29T02:24:02;100285.78;;;25.65
15709;BMP180;7954;51.914;8.420;2022-07-29T02:26:55;100278.41;;;25.61
15709;BMP180;7954;51.914;8.420;2022-07-29T02:29:45;100270.50;;;25.60
15709;BMP180;7954;51.914;8.420;2022-07-29T02:32:35;100267.75;;;25.58
15709;BMP180;7954;51.914;8.420;2022-07-29T02:35:26;100260.59;;;25.56
15709;BMP180;7954;51.914;8.420;2022-07-29T02:38:23;100268.03;;;25.53
15709;BMP180;7954;51.914;8.420;2022-07-29T02:41:33;100266.47;;;25.46
15709;BMP180;7954;51.914;8.420;2022-07-29T02:44:24;100259.13;;;25.42
15709;BMP180;7954;51.914;8.420;2022-07-29T02:47:22;100265.84;;;25.40
15709;BMP180;7954;51.914;8.420;2022-07-29T02:50:14;100261.06;;;25.36
15709;BMP180;7954;51.914;8.420;2022-07-29T02:53:07;100264.91;;;25.40
15709;BMP180;7954;51.914;8.420;2022-07-29T02:56:00;100261.66;;;25.34
15709;BMP180;7954;51.914;8.420;2022-07-29T02:58:53;100268.19;;;25.30
15709;BMP180;7954;51.914;8.420;2022-07-29T03:01:44;100270.03;;;25.31
15709;BMP180;7954;51.914;8.420;2022-07-29T03:04:34;100265.13;;;25.26
15709;BMP180;7954;51.914;8.420;2022-07-29T03:07:24;100263.88;;;25.23
15709;BMP180;7954;51.914;8.420;2022-07-29T03:10:13;100271.91;;;25.17
15709;BMP180;7954;51.914;8.420;2022-07-29T03:13:04;100274.16;;;25.14
15709;BMP180;7954;51.914;8.420;2022-07-29T03:15:53;100270.50;;;25.12
15709;BMP180;7954;51.914;8.420;2022-07-29T03:18:41;100279.75;;;25.10
15709;BMP180;7954;51.914;8.420;2022-07-29T03:21:30;100273.16;;;25.05
15709;BMP180;7954;51.914;8.420;2022-07-29T03:24:29;100270.84;;;25.00
15709;BMP180;7954;51.914;8.420;2022-07-29T03:27:18;100281.56;;;24.96
15709;BMP180;7954;51.914;8.420;2022-07-29T03:30:09;100277.59;;;24.91
15709;BMP180;7954;51.914;8.420;2022-07-29T03:33:04;100278.16;;;24.88
15709;BMP180;7954;51.914;8.420;2022-07-29T03:35:59;100275.13;;;24.84
15709;BMP180;7954;51.914;8.420;2022-07-29T03:38:49;100284.19;;;24.80
15709;BMP180;7954;51.914;8.420;2022-07-29T03:41:38;100273.34;;;24.76
15709;BMP180;7954;51.914;8.420;2022-07-29T03:44:28;100271.03;;;24.70
15709;BMP180;7954;51.914;8.420;2022-07-29T03:47:22;100279.22;;;24.66
15709;BMP180;7954;51.914;8.420;2022-07-29T03:50:33;100269.78;;;24.67
15709;BMP180;7954;51.914;8.420;2022-07-29T03:53:22;100268.38;;;24.62
15709;BMP180;7954;51.914;8.420;2022-07-29T03:56:15;100266.38;;;24.60
15709;BMP180;7954;51.914;8.420;2022-07-29T03:59:05;100271.06;;;24.55
15709;BMP180;7954;51.914;8.420;2022-07-29T04:01:54;100272.81;;;24.48
15709;BMP180;7954;51.914;8.420;2022-07-29T04:04:46;100268.22;;;24.45
15709;BMP180;7954;51.914;8.420;2022-07-29T04:07:34;100265.66;;;24.45
15709;BMP180;7954;51.914;8.420;2022-07-29T04:10:22;100274.88;;;24.43
15709;BMP180;7954;51.914;8.420;2022-07-29T04:13:17;100272.28;;;24.43
15709;BMP180;7954;51.914;8.420;2022-07-29T04:16:06;100280.19;;;24.45
15709;BMP180;7954;51.914;8.420;2022-07-29T04:18:54;100276.72;;;24.44
15709;BMP180;7954;51.914;8.420;2022-07-29T04:21:44;100287.78;;;24.43
15709;BMP180;7954;51.914;8.420;2022-07-29T04:24:32;100289.63;;;24.44
15709;BMP180;7954;51.914;8.420;2022-07-29T04:27:21;100282.19;;;24.47
15709;BMP180;7954;51.914;8.420;2022-07-29T04:30:09;100283.63;;;24.52
15709;BMP180;7954;51.914;8.420;2022-07-29T04:32:59;100274.03;;;24.51
15709;BMP180;7954;51.914;8.420;2022-07-29T04:35:47;100273.28;;;24.52
15709;BMP180;7954;51.914;8.420;2022-07-29T04:38:42;100268.28;;;24.54
15709;BMP180;7954;51.914;8.420;2022-07-29T04:41:31;100282.13;;;24.54
15709;BMP180;7954;51.914;8.420;2022-07-29T04:44:20;100271.22;;;24.57
15709;BMP180;7954;51.914;8.420;2022-07-29T04:47:14;100267.91;;;24.58
15709;BMP180;7954;51.914;8.420;2022-07-29T04:50:04;100273.06;;;24.58
15709;BMP180;7954;51.914;8.420;2022-07-29T04:52:53;100279.44;;;24.61
15709;BMP180;7954;51.914;8.420;2022-07-29T04:55:43;100279.38;;;24.68
15709;BMP180;7954;51.914;8.420;2022-07-29T04:58:34;100263.78;;;24.75
15709;BMP180;7954;51.914;8.420;2022-07-29T05:01:22;100271.13;;;24.79
15709;BMP180;7954;51.914;8.420;2022-07-29T05:04:10;100269.00;;;24.83
15709;BMP180;7954;51.914;8.420;2022-07-29T05:06:59;100269.34;;;24.86
15709;BMP180;7954;51.914;8.420;2022-07-29T05:09:48;100262.66;;;24.88
15709;BMP180;7954;51.914;8.420;2022-07-29T05:12:37;100253.25;;;24.89
15709;BMP180;7954;51.914;8.420;2022-07-29T05:15:25;100258.31;;;24.96
15709;BMP180;7954;51.914;8.420;2022-07-29T05:18:14;100263.47;;;24.96
15709;BMP180;7954;51.914;8.420;2022-07-29T05:21:02;100254.41;;;24.99
15709;BMP180;7954;51.914;8.420;2022-07-29T05:23:50;100252.47;;;25.05
15709;BMP180;7954;51.914;8.420;2022-07-29T05:26:39;100259.09;;;25.10
15709;BMP180;7954;51.914;8.420;2022-07-29T05:29:29;100249.66;;;25.11
15709;BMP180;7954;51.914;8.420;2022-07-29T05:32:30;100239.81;;;25.15
15709;BMP180;7954;51.914;8.420;2022-07-29T05:35:18;100242.88;;;25.20
15709;BMP180;7954;51.914;8.420;2022-07-29T05:38:08;100237.28;;;25.24
15709;BMP180;7954;51.914;8.420;2022-07-29T05:40:57;100250.88;;;25.29
15709;BMP180;7954;51.914;8.420;2022-07-29T05:43:45;100248.44;;;25.31
15709;BMP180;7954;51.914;8.420;2022-07-29T05:46:36;100248.44;;;25.31
15709;BMP180;7954;51.914;8.420;2022-07-29T05:49:24;100252.41;;;25.36
15709;BMP180;7954;51.914;8.420;2022-07-29T05:52:13;100249.22;;;25.38
15709;BMP180;7954;51.914;8.420;2022-07-29T05:55:02;100265.06;;;25.41
15709;BMP180;7954;51.914;8.420;2022-07-29T05:57:52;100271.38;;;25.52
15709;BMP180;7954;51.914;8.420;2022-07-29T06:00:40;100279.78;;;25.58
15709;BMP180;7954;51.914;8.420;2022-07-29T06:03:30;100279.94;;;25.59
15709;BMP180;7954;51.914;8.420;2022-07-29T06:06:19;100284.56;;;25.70
15709;BMP180;7954;51.914;8.420;2022-07-29T06:09:08;100282.97;;;25.79
15709;BMP180;7954;51.914;8.420;2022-07-29T06:11:58;100275.06;;;25.86
15709;BMP180;7954;51.914;8.420;2022-07-29T06:14:47;100276.94;;;25.95
15709;BMP180;7954;51.914;8.420;2022-07-29T06:17:39;100273.19;;;26.09
15709;BMP180;7954;51.914;8.420;2022-07-29T06:20:48;100276.72;;;26.18
15709;BMP180;7954;51.914;8.420;2022-07-29T06:23:36;100283.59;;;26.26
15709;BMP180;7954;51.914;8.420;2022-07-29T06:26:24;100280.13;;;26.34
15709;BMP180;7954;51.914;8.420;2022-07-29T06:29:17;100291.25;;;26.33
15709;BMP180;7954;51.914;8.420;2022-07-29T06:32:05;100288.97;;;26.36
15709;BMP180;7954;51.914;8.420;2022-07-29T06:34:55;100289.75;;;26.43
15709;BMP180;7954;51.914;8.420;2022-07-29T06:38:05;100282.00;;;26.52
15709;BMP180;7954;51.914;8.420;2022-07-29T06:41:13;100277.00;;;26.61
15709;BMP180;7954;51.914;8.420;2022-07-29T06:44:03;100273.66;;;26.62
15709;BMP180;7954;51.914;8.420;2022-07-29T06:46:51;100275.78;;;26.66
15709;BMP180;7954;51.914;8.420;2022-07-29T06:49:41;100281.28;;;26.69
15709;BMP180;7954;51.914;8.420;2022-07-29T06:52:29;100280.38;;;26.77
15709;BMP180;7954;51.914;8.420;2022-07-29T06:55:19;100273.50;;;26.78
15709;BMP180;7954;51.914;8.420;2022-07-29T06:58:11;100287.22;;;26.85
15709;BMP180;7954;51.914;8.420;2022-07-29T07:01:02;100283.25;;;26.89
15709;BMP180;7954;51.914;8.420;2022-07-29T07:03:51;100285.41;;;26.93
15709;BMP180;7954;51.914;8.420;2022-07-29T07:06:39;100279.44;;;26.94
15709;BMP180;7954;51.914;8.420;2022-07-29T07:09:28;100277.22;;;26.97
15709;BMP180;7954;51.914;8.420;2022-07-29T07:12:27;100275.38;;;27.04
15709;BMP180;7954;51.914;8.420;2022-07-29T07:15:15;100286.81;;;27.06
15709;BMP180;7954;51.914;8.420;2022-07-29T07:18:04;100284.06;;;27.05
15709;BMP180;7954;51.914;8.420;2022-07-29T07:20:52;100292.31;;;27.09
15709;BMP180;7954;51.914;8.420;2022-07-29T07:23:40;100298.69;;;27.21
15709;BMP180;7954;51.914;8.420;2022-07-29T07:26:28;100293.66;;;27.31
15709;BMP180;7954;51.914;8.420;2022-07-29T07:29:18;100292.56;;;27.37
15709;BMP180;7954;51.914;8.420;2022-07-29T07:32:07;100303.06;;;27.47
15709;BMP180;7954;51.914;8.420;2022-07-29T07:34:55;100302.78;;;27.53
15709;BMP180;7954;51.914;8.420;2022-07-29T07:37:44;100300.03;;;27.60
15709;BMP180;7954;51.914;8.420;2022-07-29T07:40:33;100302.31;;;27.65
15709;BMP180;7954;51.914;8.420;2022-07-29T07:43:21;100311.63;;;27.72
15709;BMP180;7954;51.914;8.420;2022-07-29T07:46:12;100317.69;;;27.81
15709;BMP180;7954;51.914;8.420;2022-07-29T07:49:00;100315.97;;;27.90
15709;BMP180;7954;51.914;8.420;2022-07-29T07:51:49;100308.97;;;27.97
15709;BMP180;7954;51.914;8.420;2022-07-29T07:54:37;100312.84;;;28.10
15709;BMP180;7954;51.914;8.420;2022-07-29T07:57:25;100305.19;;;28.20
15709;BMP180;7954;51.914;8.420;2022-07-29T08:00:15;100296.94;;;28.24
15709;BMP180;7954;51.914;8.420;2022-07-29T08:03:05;100283.47;;;28.28
15709;BMP180;7954;51.914;8.420;2022-07-29T08:06:02;100286.66;;;28.53
15709;BMP180;7954;51.914;8.420;2022-07-29T08:08:51;100294.72;;;28.64
15709;BMP180;7954;51.914;8.420;2022-07-29T08:11:42;100288.00;;;28.84
15709;BMP180;7954;51.914;8.420;2022-07-29T08:14:37;100282.38;;;28.98
15709;BMP180;7954;51.914;8.420;2022-07-29T08:17:26;100291.19;;;29.09
15709;BMP180;7954;51.914;8.420;2022-07-29T08:20:16;100292.56;;;29.24
15709;BMP180;7954;51.914;8.420;2022-07-29T08:23:06;100290.59;;;29.39
15709;BMP180;7954;51.914;8.420;2022-07-29T08:25:55;100285.22;;;29.56
15709;BMP180;7954;51.914;8.420;2022-07-29T08:28:45;100293.34;;;29.69
15709;BMP180;7954;51.914;8.420;2022-07-29T08:31:36;100291.31;;;29.85
15709;BMP180;7954;51.914;8.420;2022-07-29T08:34:24;100285.84;;;29.82
15709;BMP180;7954;51.914;8.420;2022-07-29T08:37:15;100287.69;;;29.83
15709;BMP180;7954;51.914;8.420;2022-07-29T08:40:04;100285.31;;;29.86
15709;BMP180;7954;51.914;8.420;2022-07-29T08:43:03;100280.00;;;29.85
15709;BMP180;7954;51.914;8.420;2022-07-29T08:45:52;100288.78;;;29.95
15709;BMP180;7954;51.914;8.420;2022-07-29T08:48:41;100287.22;;;29.97
15709;BMP180;7954;51.914;8.420;2022-07-29T08:51:30;100290.25;;;30.11
15709;BMP180;7954;51.914;8.420;2022-07-29T08:54:23;100288.19;;;30.17
15709;BMP180;7954;51.914;8.420;2022-07-29T08:57:12;100277.63;;;30.26
15709;BMP180;7954;51.914;8.420;2022-07-29T09:00:05;100282.78;;;30.44
15709;BMP180;7954;51.914;8.420;2022-07-29T09:02:58;100286.56;;;30.48
15709;BMP180;7954;51.914;8.420;2022-07-29T09:05:47;100270.16;;;30.49
15709;BMP180;7954;51.914;8.420;2022-07-29T09:08:36;100267.25;;;30.56
15709;BMP180;7954;51.914;8.420;2022-07-29T09:11:27;100265.72;;;30.58
15709;BMP180;7954;51.914;8.420;2022-07-29T09:14:15;100264.88;;;30.39
15709;BMP180;7954;51.914;8.420;2022-07-29T09:17:04;100260.56;;;30.29
15709;BMP180;7954;51.914;8.420;2022-07-29T09:20:08;100265.91;;;30.31
15709;BMP180;7954;51.914;8.420;2022-07-29T09:22:56;100257.44;;;30.23
15709;BMP180;7954;51.914;8.420;2022-07-29T09:25:45;100262.81;;;30.45
15709;BMP180;7954;51.914;8.420;2022-07-29T09:28:41;100248.47;;;30.69
15709;BMP180;7954;51.914;8.420;2022-07-29T09:31:33;100245.19;;;30.92
15709;BMP180;7954;51.914;8.420;2022-07-29T09:34:23;100247.13;;;31.04
15709;BMP180;7954;51.914;8.420;2022-07-29T09:37:25;100240.09;;;31.13
15709;BMP180;7954;51.914;8.420;2022-07-29T09:40:16;100242.00;;;31.26
15709;BMP180;7954;51.914;8.420;2022-07-29T09:43:11;100242.09;;;31.37
15709;BMP180;7954;51.914;8.420;2022-07-29T09:46:11;100239.16;;;31.54
15709;BMP180;7954;51.914;8.420;2022-07-29T09:49:09;100237.00;;;31.70
15709;BMP180;7954;51.914;8.420;2022-07-29T09:52:05;100233.25;;;31.88
15709;BMP180;7954;51.914;8.420;2022-07-29T09:55:04;100231.44;;;31.87
15709;BMP180;7954;51.914;8.420;2022-07-29T09:57:52;100226.25;;;31.77
15709;BMP180;7954;51.914;8.420;2022-07-29T10:00:42;100233.38;;;31.68
15709;BMP180;7954;51.914;8.420;2022-07-29T10:03:32;100234.00;;;31.75
15709;BMP180;7954;51.914;8.420;2022-07-29T10:06:20;100228.44;;;31.82
15709;BMP180;7954;51.914;8.420;2022-07-29T10:09:09;100227.38;;;32.11
15709;BMP180;7954;51.914;8.420;2022-07-29T10:12:08;100224.53;;;32.41
15709;BMP180;7954;51.914;8.420;2022-07-29T10:14:58;100217.63;;;32.53
15709;BMP180;7954;51.914;8.420;2022-07-29T10:17:46;100214.19;;;32.87
15709;BMP180;7954;51.914;8.420;2022-07-29T10:20:37;100221.19;;;33.09
15709;BMP180;7954;51.914;8.420;2022-07-29T10:23:25;100215.94;;;33.21
15709;BMP180;7954;51.914;8.420;2022-07-29T10:26:15;100220.69;;;33.49
15709;BMP180;7954;51.914;8.420;2022-07-29T10:29:04;100212.53;;;33.80
15709;BMP180;7954;51.914;8.420;2022-07-29T10:32:04;100206.78;;;34.08
15709;BMP180;7954;51.914;8.420;2022-07-29T10:35:12;100210.22;;;34.32
15709;BMP180;7954;51.914;8.420;2022-07-29T10:38:15;100204.19;;;34.46
15709;BMP180;7954;51.914;8.420;2022-07-29T10:41:23;100205.59;;;34.41
15709;BMP180;7954;51.914;8.420;2022-07-29T10:44:30;100207.50;;;34.43
15709;BMP180;7954;51.914;8.420;2022-07-29T10:47:20;100204.63;;;34.27
15709;BMP180;7954;51.914;8.420;2022-07-29T10:50:09;100196.22;;;34.20
15709;BMP180;7954;51.914;8.420;2022-07-29T10:53:04;100200.28;;;34.28
15709;BMP180;7954;51.914;8.420;2022-07-29T10:55:54;100202.91;;;34.52
15709;BMP180;7954;51.914;8.420;2022-07-29T10:58:44;100201.06;;;34.75
15709;BMP180;7954;51.914;8.420;2022-07-29T11:01:38;100196.72;;;34.89
15709;BMP180;7954;51.914;8.420;2022-07-29T11:05:00;100195.72;;;35.00
15709;BMP180;7954;51.914;8.420;2022-07-29T11:08:23;100203.91;;;35.17
15709;BMP180;7954;51.914;8.420;2022-07-29T11:11:32;100197.25;;;35.35
15709;BMP180;7954;51.914;8.420;2022-07-29T11:14:56;100196.28;;;35.46
15709;BMP180;7954;51.914;8.420;2022-07-29T11:18:05;100198.63;;;35.69
15709;BMP180;7954;51.914;8.420;2022-07-29T11:21:01;100206.06;;;35.89
15709;BMP180;7954;51.914;8.420;2022-07-29T11:24:11;100200.69;;;36.00
15709;BMP180;7954;51.914;8.420;2022-07-29T11:27:21;100201.84;;;36.18
15709;BMP180;7954;51.914;8.420;2022-07-29T11:30:47;100202.97;;;36.36
15709;BMP180;7954;51.914;8.420;2022-07-29T11:33:38;100196.59;;;36.32
15709;BMP180;7954;51.914;8.420;2022-07-29T11:37:16;100202.38;;;36.40
15709;BMP180;7954;51.914;8.420;2022-07-29T11:40:25;100193.88;;;36.44
15709;BMP180;7954;51.914;8.420;2022-07-29T11:43:45;100199.72;;;36.40
15709;BMP180;7954;51.914;8.420;2022-07-29T11:46:46;100195.47;;;36.42
15709;BMP180;7954;51.914;8.420;2022-07-29T11:49:35;100195.56;;;36.43
15709;BMP180;7954;51.914;8.420;2022-07-29T11:52:32;100185.97;;;36.58
15709;BMP180;7954;51.914;8.420;2022-07-29T11:55:40;100182.78;;;36.78
15709;BMP180;7954;51.914;8.420;2022-07-29T11:58:38;100188.00;;;36.91
15709;BMP180;7954;51.914;8.420;2022-07-29T12:01:26;100187.44;;;36.96
15709;BMP180;7954;51.914;8.420;2022-07-29T12:04:14;100184.97;;;37.14
15709;BMP180;7954;51.914;8.420;2022-07-29T12:07:05;100182.28;;;37.42
15709;BMP180;7954;51.914;8.420;2022-07-29T12:09:53;100173.66;;;37.61
15709;BMP180;7954;51.914;8.420;2022-07-29T12:12:50;100173.66;;;37.75
15709;BMP180;7954;51.914;8.420;2022-07-29T12:15:39;100171.00;;;37.91
15709;BMP180;7954;51.914;8.420;2022-07-29T12:18:33;100170.56;;;38.14
15709;BMP180;7954;51.914;8.420;2022-07-29T12:21:21;100166.91;;;38.28
15709;BMP180;7954;51.914;8.420;2022-07-29T12:24:11;100170.38;;;38.27
15709;BMP180;7954;51.914;8.420;2022-07-29T12:26:59;100172.53;;;38.18
15709;BMP180;7954;51.914;8.420;2022-07-29T12:29:56;100167.88;;;37.98
15709;BMP180;7954;51.914;8.420;2022-07-29T12:32:47;100166.72;;;37.77
15709;BMP180;7954;51.914;8.420;2022-07-29T12:35:36;100170.22;;;37.62
15709;BMP180;7954;51.914;8.420;2022-07-29T12:38:25;100177.03;;;37.89
15709;BMP180;7954;51.914;8.420;2022-07-29T12:41:13;100164.97;;;38.09
15709;BMP180;7954;51.914;8.420;2022-07-29T12:44:02;100168.81;;;38.30
15709;BMP180;7954;51.914;8.420;2022-07-29T12:47:02;100154.03;;;38.34
15709;BMP180;7954;51.914;8.420;2022-07-29T12:50:07;100166.63;;;38.39
15709;BMP180;7954;51.914;8.420;2022-07-29T12:53:08;100160.84;;;38.46
15709;BMP180;7954;51.914;8.420;2022-07-29T12:55:57;100161.41;;;38.23
15709;BMP180;7954;51.914;8.420;2022-07-29T12:59:11;100153.28;;;38.04
15709;BMP180;7954;51.914;8.420;2022-07-29T13:01:59;100154.53;;;37.79
15709;BMP180;7954;51.914;8.420;2022-07-29T13:04:56;100153.78;;;37.51
15709;BMP180;7954;51.914;8.420;2022-07-29T13:07:46;100160.25;;;37.26
15709;BMP180;7954;51.914;8.420;2022-07-29T13:10:43;100169.59;;;37.21
15709;BMP180;7954;51.914;8.420;2022-07-29T13:13:31;100165.19;;;37.22
15709;BMP180;7954;51.914;8.420;2022-07-29T13:16:19;100163.56;;;37.24
15709;BMP180;7954;51.914;8.420;2022-07-29T13:19:11;100165.41;;;37.25
15709;BMP180;7954;51.914;8.420;2022-07-29T13:22:01;100163.41;;;37.21
15709;BMP180;7954;51.914;8.420;2022-07-29T13:24:51;100151.34;;;37.10
15709;BMP180;7954;51.914;8.420;2022-07-29T13:27:39;100156.19;;;37.02
15709;BMP180;7954;51.914;8.420;2022-07-29T13:30:27;100157.72;;;36.84
15709;BMP180;7954;51.914;8.420;2022-07-29T13:33:15;100157.25;;;36.77
15709;BMP180;7954;51.914;8.420;2022-07-29T13:36:04;100154.88;;;36.67
15709;BMP180;7954;51.914;8.420;2022-07-29T13:38:54;100148.38;;;36.61
15709;BMP180;7954;51.914;8.420;2022-07-29T13:41:42;100154.00;;;36.66
15709;BMP180;7954;51.914;8.420;2022-07-29T13:44:31;100154.16;;;36.69
15709;BMP180;7954;51.914;8.420;2022-07-29T13:47:20;100143.66;;;36.84
15709;BMP180;7954;51.914;8.420;2022-07-29T13:50:18;100143.22;;;36.91
15709;BMP180;7954;51.914;8.420;2022-07-29T13:53:07;100146.47;;;36.87
15709;BMP180;7954;51.914;8.420;2022-07-29T13:56:05;100154.94;;;36.81
15709;BMP180;7954;51.914;8.420;2022-07-29T13:58:53;100144.34;;;36.67
15709;BMP180;7954;51.914;8.420;2022-07-29T14:01:41;100141.84;;;36.68
15709;BMP180;7954;51.914;8.420;2022-07-29T14:04:32;100144.94;;;36.76
15709;BMP180;7954;51.914;8.420;2022-07-29T14:07:22;100146.38;;;36.71
15709;BMP180;7954;51.914;8.420;2022-07-29T14:10:10;100150.78;;;36.29
15709;BMP180;7954;51.914;8.420;2022-07-29T14:13:05;100143.75;;;36.15
15709;BMP180;7954;51.914;8.420;2022-07-29T14:16:11;100158.25;;;36.08
15709;BMP180;7954;51.914;8.420;2022-07-29T14:19:00;100156.91;;;36.00
15709;BMP180;7954;51.914;8.420;2022-07-29T14:21:49;100157.69;;;35.99
15709;BMP180;7954;51.914;8.420;2022-07-29T14:24:38;100158.97;;;35.92
15709;BMP180;7954;51.914;8.420;2022-07-29T14:27:26;100156.38;;;35.66
15709;BMP180;7954;51.914;8.420;2022-07-29T14:30:30;100157.75;;;35.46
15709;BMP180;7954;51.914;8.420;2022-07-29T14:33:18;100164.19;;;35.26
15709;BMP180;7954;51.914;8.420;2022-07-29T14:36:07;100161.38;;;35.10
15709;BMP180;7954;51.914;8.420;2022-07-29T14:38:55;100169.59;;;35.01
15709;BMP180;7954;51.914;8.420;2022-07-29T14:41:44;100166.91;;;34.75
15709;BMP180;7954;51.914;8.420;2022-07-29T14:44:32;100177.28;;;34.61
15709;BMP180;7954;51.914;8.420;2022-07-29T14:47:22;100173.16;;;34.52
15709;BMP180;7954;51.914;8.420;2022-07-29T14:50:10;100175.59;;;34.37
15709;BMP180;7954;51.914;8.420;2022-07-29T14:52:58;100179.09;;;34.25
15709;BMP180;7954;51.914;8.420;2022-07-29T14:55:47;100174.38;;;34.08
15709;BMP180;7954;51.914;8.420;2022-07-29T14:58:37;100178.75;;;33.96
15709;BMP180;7954;51.914;8.420;2022-07-29T15:01:35;100191.31;;;33.89
15709;BMP180;7954;51.914;8.420;2022-07-29T15:04:25;100188.59;;;33.87
15709;BMP180;7954;51.914;8.420;2022-07-29T15:07:14;100194.09;;;33.79
15709;BMP180;7954;51.914;8.420;2022-07-29T15:10:03;100187.75;;;33.64
15709;BMP180;7954;51.914;8.420;2022-07-29T15:12:54;100190.03;;;33.48
15709;BMP180;7954;51.914;8.420;2022-07-29T15:15:42;100188.22;;;33.47
15709;BMP180;7954;51.914;8.420;2022-07-29T15:18:31;100183.91;;;33.47
15709;BMP180;7954;51.914;8.420;2022-07-29T15:21:20;100182.06;;;33.46
15709;BMP180;7954;51.914;8.420;2022-07-29T15:24:09;100186.50;;;33.47
15709;BMP180;7954;51.914;8.420;2022-07-29T15:26:57;100190.50;;;33.42
15709;BMP180;7954;51.914;8.420;2022-07-29T15:29:45;100177.41;;;33.42
15709;BMP180;7954;51.914;8.420;2022-07-29T15:32:33;100183.44;;;33.41
15709;BMP180;7954;51.914;8.420;2022-07-29T15:35:21;100176.88;;;33.35
15709;BMP180;7954;51.914;8.420;2022-07-29T15:38:11;100182.34;;;33.27
15709;BMP180;7954;51.914;8.420;2022-07-29T15:41:00;100164.13;;;33.17
15709;BMP180;7954;51.914;8.420;2022-07-29T15:43:48;100173.44;;;33.02
15709;BMP180;7954;51.914;8.420;2022-07-29T15:46:37;100171.94;;;32.94
15709;BMP180;7954;51.914;8.420;2022-07-29T15:49:43;100169.44;;;32.84
15709;BMP180;7954;51.914;8.420;2022-07-29T15:52:36;100167.97;;;32.76
15709;BMP180;7954;51.914;8.420;2022-07-29T15:55:28;100162.06;;;32.67
15709;BMP180;7954;51.914;8.420;2022-07-29T15:58:16;100161.34;;;32.58
15709;BMP180;7954;51.914;8.420;2022-07-29T16:01:05;100165.31;;;32.53
15709;BMP180;7954;51.914;8.420;2022-07-29T16:03:53;100163.63;;;32.54
15709;BMP180;7954;51.914;8.420;2022-07-29T16:06:43;100159.72;;;32.49
15709;BMP180;7954;51.914;8.420;2022-07-29T16:09:32;100156.75;;;32.44
15709;BMP180;7954;51.914;8.420;2022-07-29T16:12:21;100165.47;;;32.33
15709;BMP180;7954;51.914;8.420;2022-07-29T16:15:10;100156.91;;;32.13
15709;BMP180;7954;51.914;8.420;2022-07-29T16:17:58;100158.19;;;31.96
15709;BMP180;7954;51.914;8.420;2022-07-29T16:20:46;100162.69;;;31.88
15709;BMP180;7954;51.914;8.420;2022-07-29T16:23:35;100162.78;;;31.78
15709;BMP180;7954;51.914;8.420;2022-07-29T16:26:23;100166.47;;;31.70
15709;BMP180;7954;51.914;8.420;2022-07-29T16:29:13;100173.13;;;31.66
15709;BMP180;7954;51.914;8.420;2022-07-29T16:32:04;100168.28;;;31.71